sensor_id;sensor_type;location;lat;lon;timestamp;pressure;altitude;pressure_sealevel;temperature;humidity
36454;BME280;22478;51.740;-1.314;2023-04-26T00:00:51;100621.27;;;3.53;72.01
36454;BME280;22478;51.740;-1.314;2023-04-26T00:03:18;100611.84;;;4.72;65.40
36454;BME280;22478;51.740;-1.314;2023-04-26T00:05:45;100605.23;;;3.54;69.26
36454;BME280;22478;51.740;-1.314;2023-04-26T00:08:12;100599.93;;;3.29;72.11
36454;BME280;22478;51.740;-1.314;2023-04-26T00:10:40;100596.11;;;4.46;67.81
36454;BME280;22478;51.740;-1.314;2023-04-26T00:13:07;100596.54;;;5.04;66.38
36454;BME280;22478;51.740;-1.314;2023-04-26T00:15:34;100595.92;;;4.73;66.33
36454;BME280;22478;51.740;-1.314;2023-04-26T00:18:01;100590.22;;;3.85;65.22
36454;BME280;22478;51.740;-1.314;2023-04-26T00:20:28;100586.18;;;4.26;65.51
36454;BME280;22478;51.740;-1.314;2023-04-26T00:22:55;100578.81;;;4.67;63.55
36454;BME280;22478;51.740;-1.314;2023-04-26T00:25:22;100575.12;;;5.24;62.62
36454;BME280;22478;51.740;-1.314;2023-04-26T00:27:51;100568.49;;;4.46;61.44
36454;BME280;22478;51.740;-1.314;2023-04-26T00:30:18;100564.36;;;5.04;61.48
36454;BME280;22478;51.740;-1.314;2023-04-26T00:32:46;100564.53;;;2.43;65.28
36454;BME280;22478;51.740;-1.314;2023-04-26T00:35:13;100555.27;;;4.80;62.27
36454;BME280;22478;51.740;-1.314;2023-04-26T00:37:40;100557.92;;;4.76;60.01
36454;BME280;22478;51.740;-1.314;2023-04-26T00:40:08;100562.14;;;5.30;59.19
36454;BME280;22478;51.740;-1.314;2023-04-26T00:42:37;100563.82;;;5.24;57.57
36454;BME280;22478;51.740;-1.314;2023-04-26T00:45:06;100564.36;;;5.71;56.94
36454;BME280;22478;51.740;-1.314;2023-04-26T00:47:34;100560.99;;;5.92;55.95
36454;BME280;22478;51.740;-1.314;2023-04-26T00:50:02;100558.59;;;5.75;56.06
36454;BME280;22478;51.740;-1.314;2023-04-26T00:52:29;100562.24;;;5.73;56.92
36454;BME280;22478;51.740;-1.314;2023-04-26T00:54:57;100560.27;;;5.92;55.91
36454;BME280;22478;51.740;-1.314;2023-04-26T00:57:24;100553.64;;;4.98;56.93
36454;BME280;22478;51.740;-1.314;2023-04-26T00:59:51;100552.83;;;4.00;59.68
36454;BME280;22478;51.740;-1.314;2023-04-26T01:02:18;100551.94;;;4.75;57.86
36454;BME280;22478;51.740;-1.314;2023-04-26T01:04:46;100554.98;;;5.96;54.78
36454;BME280;22478;51.740;-1.314;2023-04-26T01:07:13;100556.51;;;5.35;54.83
36454;BME280;22478;51.740;-1.314;2023-04-26T01:09:40;100557.42;;;6.10;54.74
36454;BME280;22478;51.740;-1.314;2023-04-26T01:12:10;100557.83;;;4.86;55.54
36454;BME280;22478;51.740;-1.314;2023-04-26T01:14:38;100555.11;;;5.21;56.46
36454;BME280;22478;51.740;-1.314;2023-04-26T01:17:05;100552.11;;;4.84;55.77
36454;BME280;22478;51.740;-1.314;2023-04-26T01:19:32;100551.13;;;5.41;55.42
36454;BME280;22478;51.740;-1.314;2023-04-26T01:22:00;100549.18;;;5.33;56.54
36454;BME280;22478;51.740;-1.314;2023-04-26T01:24:27;100541.97;;;6.08;54.32
36454;BME280;22478;51.740;-1.314;2023-04-26T01:26:54;100542.74;;;5.40;55.79
36454;BME280;22478;51.740;-1.314;2023-04-26T01:29:21;100547.59;;;5.39;57.24
36454;BME280;22478;51.740;-1.314;2023-04-26T01:31:49;100549.77;;;5.38;57.19
36454;BME280;22478;51.740;-1.314;2023-04-26T01:34:16;100553.46;;;5.94;56.73
36454;BME280;22478;51.740;-1.314;2023-04-26T01:36:43;100558.31;;;5.52;54.19
36454;BME280;22478;51.740;-1.314;2023-04-26T01:39:11;100553.88;;;5.65;54.91
36454;BME280;22478;51.740;-1.314;2023-04-26T01:41:38;100553.70;;;5.79;56.55
36454;BME280;22478;51.740;-1.314;2023-04-26T01:44:05;100555.44;;;6.18;56.64
36454;BME280;22478;51.740;-1.314;2023-04-26T01:46:32;100551.98;;;6.62;55.71
36454;BME280;22478;51.740;-1.314;2023-04-26T01:49:00;100550.47;;;7.05;55.10
36454;BME280;22478;51.740;-1.314;2023-04-26T01:51:26;100553.48;;;4.86;59.18
36454;BME280;22478;51.740;-1.314;2023-04-26T01:53:54;100557.78;;;3.71;63.01
36454;BME280;22478;51.740;-1.314;2023-04-26T01:56:23;100558.94;;;4.63;63.10
36454;BME280;22478;51.740;-1.314;2023-04-26T01:58:50;100558.21;;;5.66;60.24
36454;BME280;22478;51.740;-1.314;2023-04-26T02:01:17;100557.07;;;5.64;62.18
36454;BME280;22478;51.740;-1.314;2023-04-26T02:03:44;100555.24;;;4.98;63.77
36454;BME280;22478;51.740;-1.314;2023-04-26T02:06:11;100556.64;;;3.88;68.75
36454;BME280;22478;51.740;-1.314;2023-04-26T02:08:38;100554.97;;;3.72;66.25
36454;BME280;22478;51.740;-1.314;2023-04-26T02:11:05;100547.33;;;4.30;67.93
36454;BME280;22478;51.740;-1.314;2023-04-26T02:13:33;100546.73;;;4.56;68.96
36454;BME280;22478;51.740;-1.314;2023-04-26T02:16:01;100547.56;;;3.57;71.00
36454;BME280;22478;51.740;-1.314;2023-04-26T02:18:28;100544.26;;;4.45;69.58
36454;BME280;22478;51.740;-1.314;2023-04-26T02:20:55;100547.23;;;4.54;68.74
36454;BME280;22478;51.740;-1.314;2023-04-26T02:23:22;100550.85;;;3.48;72.74
36454;BME280;22478;51.740;-1.314;2023-04-26T02:25:50;100553.98;;;3.99;71.50
36454;BME280;22478;51.740;-1.314;2023-04-26T02:28:18;100558.35;;;3.23;71.35
36454;BME280;22478;51.740;-1.314;2023-04-26T02:30:45;100556.91;;;4.17;69.06
36454;BME280;22478;51.740;-1.314;2023-04-26T02:33:12;100553.32;;;3.67;70.57
36454;BME280;22478;51.740;-1.314;2023-04-26T02:35:39;100553.89;;;3.62;70.86
36454;BME280;22478;51.740;-1.314;2023-04-26T02:38:07;100557.13;;;4.03;68.68
36454;BME280;22478;51.740;-1.314;2023-04-26T02:40:34;100564.49;;;1.85;75.67
36454;BME280;22478;51.740;-1.314;2023-04-26T02:43:01;100556.25;;;3.41;70.20
36454;BME280;22478;51.740;-1.314;2023-04-26T02:45:28;100556.68;;;1.72;73.73
36454;BME280;22478;51.740;-1.314;2023-04-26T02:47:55;100556.98;;;3.48;70.70
36454;BME280;22478;51.740;-1.314;2023-04-26T02:50:22;100564.01;;;1.68;77.37
36454;BME280;22478;51.740;-1.314;2023-04-26T02:52:49;100560.58;;;1.90;78.99
36454;BME280;22478;51.740;-1.314;2023-04-26T02:55:17;100553.06;;;1.26;81.32
36454;BME280;22478;51.740;-1.314;2023-04-26T02:57:44;100553.56;;;1.68;85.78
36454;BME280;22478;51.740;-1.314;2023-04-26T03:00:12;100560.85;;;1.52;86.33
36454;BME280;22478;51.740;-1.314;2023-04-26T03:02:40;100565.64;;;1.42;87.70
36454;BME280;22478;51.740;-1.314;2023-04-26T03:05:08;100562.49;;;1.75;89.49
36454;BME280;22478;51.740;-1.314;2023-04-26T03:07:35;100548.39;;;2.56;84.21
36454;BME280;22478;51.740;-1.314;2023-04-26T03:10:03;100548.69;;;1.79;85.01
36454;BME280;22478;51.740;-1.314;2023-04-26T03:12:31;100546.04;;;3.18;80.94
36454;BME280;22478;51.740;-1.314;2023-04-26T03:14:58;100547.39;;;3.51;77.88
36454;BME280;22478;51.740;-1.314;2023-04-26T03:17:26;100543.50;;;3.13;78.18
36454;BME280;22478;51.740;-1.314;2023-04-26T03:19:53;100543.88;;;2.95;78.47
36454;BME280;22478;51.740;-1.314;2023-04-26T03:22:20;100544.85;;;2.65;81.24
36454;BME280;22478;51.740;-1.314;2023-04-26T03:24:48;100543.23;;;3.57;76.80
36454;BME280;22478;51.740;-1.314;2023-04-26T03:27:15;100542.66;;;3.14;76.95
36454;BME280;22478;51.740;-1.314;2023-04-26T03:29:42;100539.97;;;4.28;75.77
36454;BME280;22478;51.740;-1.314;2023-04-26T03:32:10;100537.53;;;3.98;76.41
36454;BME280;22478;51.740;-1.314;2023-04-26T03:34:37;100537.29;;;3.27;81.15
36454;BME280;22478;51.740;-1.314;2023-04-26T03:37:05;100535.16;;;3.11;81.46
36454;BME280;22478;51.740;-1.314;2023-04-26T03:39:32;100537.67;;;1.92;86.14
36454;BME280;22478;51.740;-1.314;2023-04-26T03:42:00;100536.54;;;1.96;88.44
36454;BME280;22478;51.740;-1.314;2023-04-26T03:44:27;100530.83;;;2.58;86.75
36454;BME280;22478;51.740;-1.314;2023-04-26T03:46:54;100533.26;;;2.22;87.92
36454;BME280;22478;51.740;-1.314;2023-04-26T03:49:21;100526.17;;;2.38;86.77
36454;BME280;22478;51.740;-1.314;2023-04-26T03:51:47;100525.18;;;2.36;84.84
36454;BME280;22478;51.740;-1.314;2023-04-26T03:54:15;100530.04;;;2.43;87.64
36454;BME280;22478;51.740;-1.314;2023-04-26T03:56:42;100525.59;;;2.51;89.30
36454;BME280;22478;51.740;-1.314;2023-04-26T03:59:09;100513.27;;;3.06;83.81
36454;BME280;22478;51.740;-1.314;2023-04-26T04:01:36;100512.51;;;3.87;80.28
36454;BME280;22478;51.740;-1.314;2023-04-26T04:04:03;100513.65;;;3.56;80.53
36454;BME280;22478;51.740;-1.314;2023-04-26T04:06:31;100507.20;;;2.39;86.05
36454;BME280;22478;51.740;-1.314;2023-04-26T04:08:58;100499.70;;;2.63;81.10
36454;BME280;22478;51.740;-1.314;2023-04-26T04:11:26;100498.66;;;2.68;83.92
36454;BME280;22478;51.740;-1.314;2023-04-26T04:13:52;100494.14;;;4.14;78.03
36454;BME280;22478;51.740;-1.314;2023-04-26T04:16:20;100501.01;;;4.06;78.58
36454;BME280;22478;51.740;-1.314;2023-04-26T04:18:47;100502.56;;;3.73;77.94
36454;BME280;22478;51.740;-1.314;2023-04-26T04:21:15;100500.68;;;3.02;81.64
36454;BME280;22478;51.740;-1.314;2023-04-26T04:23:42;100496.20;;;3.51;82.19
36454;BME280;22478;51.740;-1.314;2023-04-26T04:26:09;100494.94;;;3.51;78.79
36454;BME280;22478;51.740;-1.314;2023-04-26T04:28:38;100493.43;;;3.62;79.82
36454;BME280;22478;51.740;-1.314;2023-04-26T04:31:06;100490.89;;;3.73;78.40
36454;BME280;22478;51.740;-1.314;2023-04-26T04:33:33;100488.94;;;3.17;77.48
36454;BME280;22478;51.740;-1.314;2023-04-26T04:36:00;100485.02;;;3.79;80.22
36454;BME280;22478;51.740;-1.314;2023-04-26T04:38:28;100485.62;;;3.99;78.12
36454;BME280;22478;51.740;-1.314;2023-04-26T04:40:55;100484.45;;;3.73;79.29
36454;BME280;22478;51.740;-1.314;2023-04-26T04:43:22;100483.93;;;3.49;81.76
36454;BME280;22478;51.740;-1.314;2023-04-26T04:45:49;100482.84;;;3.94;79.54
36454;BME280;22478;51.740;-1.314;2023-04-26T04:48:17;100480.83;;;3.90;78.39
36454;BME280;22478;51.740;-1.314;2023-04-26T04:50:44;100480.58;;;4.02;76.64
36454;BME280;22478;51.740;-1.314;2023-04-26T04:53:11;100480.25;;;3.96;77.95
36454;BME280;22478;51.740;-1.314;2023-04-26T04:55:38;100485.35;;;3.08;81.20
36454;BME280;22478;51.740;-1.314;2023-04-26T04:58:05;100487.28;;;3.44;80.21
36454;BME280;22478;51.740;-1.314;2023-04-26T05:00:33;100488.44;;;3.54;80.54
36454;BME280;22478;51.740;-1.314;2023-04-26T05:03:00;100489.23;;;3.47;80.38
36454;BME280;22478;51.740;-1.314;2023-04-26T05:05:27;100491.52;;;3.77;80.47
36454;BME280;22478;51.740;-1.314;2023-04-26T05:07:54;100495.45;;;3.00;81.96
36454;BME280;22478;51.740;-1.314;2023-04-26T05:10:22;100491.75;;;3.81;82.85
36454;BME280;22478;51.740;-1.314;2023-04-26T05:12:49;100494.00;;;2.57;89.94
36454;BME280;22478;51.740;-1.314;2023-04-26T05:15:16;100495.87;;;1.90;90.27
36454;BME280;22478;51.740;-1.314;2023-04-26T05:17:43;100500.83;;;2.42;96.47
36454;BME280;22478;51.740;-1.314;2023-04-26T05:20:11;100505.07;;;0.73;96.18
36454;BME280;22478;51.740;-1.314;2023-04-26T05:22:39;100507.13;;;0.74;100.00
36454;BME280;22478;51.740;-1.314;2023-04-26T05:25:07;100507.17;;;-0.05;100.00
36454;BME280;22478;51.740;-1.314;2023-04-26T05:27:35;100502.03;;;2.89;95.69
36454;BME280;22478;51.740;-1.314;2023-04-26T05:30:03;100503.98;;;1.78;98.87
36454;BME280;22478;51.740;-1.314;2023-04-26T05:32:31;100507.30;;;1.96;99.15
36454;BME280;22478;51.740;-1.314;2023-04-26T05:34:58;100506.62;;;1.92;100.00
36454;BME280;22478;51.740;-1.314;2023-04-26T05:37:24;100509.48;;;1.61;100.00
36454;BME280;22478;51.740;-1.314;2023-04-26T05:39:51;100514.54;;;1.42;100.00
36454;BME280;22478;51.740;-1.314;2023-04-26T05:42:18;100510.22;;;1.02;100.00
36454;BME280;22478;51.740;-1.314;2023-04-26T05:44:45;100511.05;;;1.26;100.00
36454;BME280;22478;51.740;-1.314;2023-04-26T05:47:13;100509.66;;;1.42;100.00
36454;BME280;22478;51.740;-1.314;2023-04-26T05:49:40;100511.70;;;0.84;100.00
36454;BME280;22478;51.740;-1.314;2023-04-26T05:52:07;100506.12;;;1.87;100.00
36454;BME280;22478;51.740;-1.314;2023-04-26T05:54:35;100505.33;;;0.73;100.00
36454;BME280;22478;51.740;-1.314;2023-04-26T05:57:02;100503.23;;;0.25;100.00
36454;BME280;22478;51.740;-1.314;2023-04-26T05:59:30;100504.03;;;0.34;100.00
36454;BME280;22478;51.740;-1.314;2023-04-26T06:02:02;100508.37;;;0.84;100.00
36454;BME280;22478;51.740;-1.314;2023-04-26T06:04:29;100511.70;;;1.56;100.00
36454;BME280;22478;51.740;-1.314;2023-04-26T06:06:56;100508.80;;;2.34;100.00
36454;BME280;22478;51.740;-1.314;2023-04-26T06:09:23;100509.97;;;2.03;100.00
36454;BME280;22478;51.740;-1.314;2023-04-26T06:11:50;100518.85;;;0.59;100.00
36454;BME280;22478;51.740;-1.314;2023-04-26T06:14:17;100521.15;;;0.27;100.00
36454;BME280;22478;51.740;-1.314;2023-04-26T06:16:44;100525.10;;;1.70;100.00
36454;BME280;22478;51.740;-1.314;2023-04-26T06:19:11;100528.24;;;1.85;100.00
36454;BME280;22478;51.740;-1.314;2023-04-26T06:21:39;100524.81;;;1.41;100.00
36454;BME280;22478;51.740;-1.314;2023-04-26T06:24:07;100526.13;;;1.64;100.00
36454;BME280;22478;51.740;-1.314;2023-04-26T06:26:35;100526.46;;;-0.25;100.00
36454;BME280;22478;51.740;-1.314;2023-04-26T06:29:02;100525.67;;;1.76;100.00
36454;BME280;22478;51.740;-1.314;2023-04-26T06:31:29;100518.94;;;2.95;100.00
36454;BME280;22478;51.740;-1.314;2023-04-26T06:33:57;100522.06;;;1.59;100.00
36454;BME280;22478;51.740;-1.314;2023-04-26T06:36:24;100525.28;;;1.96;100.00
36454;BME280;22478;51.740;-1.314;2023-04-26T06:38:51;100525.50;;;1.82;100.00
36454;BME280;22478;51.740;-1.314;2023-04-26T06:41:18;100529.81;;;1.86;100.00
36454;BME280;22478;51.740;-1.314;2023-04-26T06:43:46;100534.34;;;2.22;100.00
36454;BME280;22478;51.740;-1.314;2023-04-26T06:46:14;100537.88;;;1.36;100.00
36454;BME280;22478;51.740;-1.314;2023-04-26T06:48:42;100531.07;;;2.69;100.00
36454;BME280;22478;51.740;-1.314;2023-04-26T06:51:09;100527.04;;;1.65;100.00
36454;BME280;22478;51.740;-1.314;2023-04-26T06:53:36;100523.80;;;2.34;100.00
36454;BME280;22478;51.740;-1.314;2023-04-26T06:56:03;100521.36;;;2.27;100.00
36454;BME280;22478;51.740;-1.314;2023-04-26T06:58:30;100514.34;;;1.45;100.00
36454;BME280;22478;51.740;-1.314;2023-04-26T07:00:57;100511.73;;;1.43;100.00
36454;BME280;22478;51.740;-1.314;2023-04-26T07:03:25;100507.48;;;0.84;100.00
36454;BME280;22478;51.740;-1.314;2023-04-26T07:05:54;100507.25;;;0.52;100.00
36454;BME280;22478;51.740;-1.314;2023-04-26T07:08:21;100516.05;;;-1.04;100.00
36454;BME280;22478;51.740;-1.314;2023-04-26T07:10:48;100510.01;;;0.16;100.00
36454;BME280;22478;51.740;-1.314;2023-04-26T07:13:15;100511.59;;;-0.27;100.00
36454;BME280;22478;51.740;-1.314;2023-04-26T07:15:43;100517.61;;;-0.88;100.00
36454;BME280;22478;51.740;-1.314;2023-04-26T07:18:10;100514.12;;;0.72;100.00
36454;BME280;22478;51.740;-1.314;2023-04-26T07:20:37;100509.38;;;0.40;100.00
36454;BME280;22478;51.740;-1.314;2023-04-26T07:23:04;100509.72;;;0.51;100.00
36454;BME280;22478;51.740;-1.314;2023-04-26T07:25:33;100510.17;;;1.57;100.00
36454;BME280;22478;51.740;-1.314;2023-04-26T07:28:00;100518.36;;;0.51;100.00
36454;BME280;22478;51.740;-1.314;2023-04-26T07:30:28;100513.97;;;0.45;100.00
36454;BME280;22478;51.740;-1.314;2023-04-26T07:32:55;100517.23;;;0.84;100.00
36454;BME280;22478;51.740;-1.314;2023-04-26T07:35:22;100518.77;;;1.06;100.00
36454;BME280;22478;51.740;-1.314;2023-04-26T07:37:50;100519.16;;;1.39;100.00
36454;BME280;22478;51.740;-1.314;2023-04-26T07:40:17;100520.08;;;1.65;100.00
36454;BME280;22478;51.740;-1.314;2023-04-26T07:42:45;100516.01;;;2.26;100.00
36454;BME280;22478;51.740;-1.314;2023-04-26T07:45:12;100515.18;;;2.09;100.00
36454;BME280;22478;51.740;-1.314;2023-04-26T07:47:39;100524.39;;;1.49;100.00
36454;BME280;22478;51.740;-1.314;2023-04-26T07:50:08;100522.56;;;2.03;100.00
36454;BME280;22478;51.740;-1.314;2023-04-26T07:52:35;100519.17;;;1.64;99.72
36454;BME280;22478;51.740;-1.314;2023-04-26T07:55:04;100519.36;;;2.02;100.00
36454;BME280;22478;51.740;-1.314;2023-04-26T07:57:32;100516.85;;;2.65;98.82
36454;BME280;22478;51.740;-1.314;2023-04-26T07:59:59;100517.92;;;2.72;98.04
36454;BME280;22478;51.740;-1.314;2023-04-26T08:02:27;100509.06;;;2.03;100.00
36454;BME280;22478;51.740;-1.314;2023-04-26T08:04:54;100501.86;;;2.46;100.00
36454;BME280;22478;51.740;-1.314;2023-04-26T08:07:21;100504.39;;;2.11;97.14
36454;BME280;22478;51.740;-1.314;2023-04-26T08:09:48;100500.38;;;2.63;91.91
36454;BME280;22478;51.740;-1.314;2023-04-26T08:12:15;100498.24;;;2.57;97.04
36454;BME280;22478;51.740;-1.314;2023-04-26T08:14:42;100495.02;;;2.73;94.90
36454;BME280;22478;51.740;-1.314;2023-04-26T08:17:09;100497.21;;;2.37;90.91
36454;BME280;22478;51.740;-1.314;2023-04-26T08:19:37;100502.36;;;1.61;89.39
36454;BME280;22478;51.740;-1.314;2023-04-26T08:22:04;100491.42;;;3.01;85.87
36454;BME280;22478;51.740;-1.314;2023-04-26T08:24:32;100493.78;;;2.44;85.18
36454;BME280;22478;51.740;-1.314;2023-04-26T08:26:59;100489.37;;;3.55;85.15
36454;BME280;22478;51.740;-1.314;2023-04-26T08:29:26;100501.80;;;2.41;87.55
36454;BME280;22478;51.740;-1.314;2023-04-26T08:31:54;100493.42;;;3.77;78.44
36454;BME280;22478;51.740;-1.314;2023-04-26T08:34:20;100499.40;;;2.12;79.13
36454;BME280;22478;51.740;-1.314;2023-04-26T08:36:47;100494.42;;;3.67;75.12
36454;BME280;22478;51.740;-1.314;2023-04-26T08:39:15;100493.24;;;4.05;72.09
36454;BME280;22478;51.740;-1.314;2023-04-26T08:41:44;100493.78;;;4.65;73.07
36454;BME280;22478;51.740;-1.314;2023-04-26T08:44:11;100495.35;;;2.78;77.62
36454;BME280;22478;51.740;-1.314;2023-04-26T08:46:46;100494.33;;;2.87;76.65
36454;BME280;22478;51.740;-1.314;2023-04-26T08:49:25;100491.81;;;4.11;77.15
36454;BME280;22478;51.740;-1.314;2023-04-26T08:51:56;100493.17;;;3.51;74.83
36454;BME280;22478;51.740;-1.314;2023-04-26T08:54:25;100495.47;;;4.03;72.59
36454;BME280;22478;51.740;-1.314;2023-04-26T08:56:53;100502.54;;;2.11;81.34
36454;BME280;22478;51.740;-1.314;2023-04-26T08:59:22;100501.56;;;2.19;82.82
36454;BME280;22478;51.740;-1.314;2023-04-26T09:01:49;100504.42;;;2.81;84.97
36454;BME280;22478;51.740;-1.314;2023-04-26T09:04:16;100505.55;;;2.56;84.85
36454;BME280;22478;51.740;-1.314;2023-04-26T09:06:43;100500.17;;;4.51;78.00
36454;BME280;22478;51.740;-1.314;2023-04-26T09:09:12;100507.90;;;3.43;74.65
36454;BME280;22478;51.740;-1.314;2023-04-26T09:11:59;100505.77;;;3.07;80.69
36454;BME280;22478;51.740;-1.314;2023-04-26T09:14:27;100512.64;;;1.86;87.26
36454;BME280;22478;51.740;-1.314;2023-04-26T09:16:54;100505.40;;;3.40;81.51
36454;BME280;22478;51.740;-1.314;2023-04-26T09:19:34;100505.88;;;2.47;78.54
36454;BME280;22478;51.740;-1.314;2023-04-26T09:22:02;100502.26;;;3.32;80.16
36454;BME280;22478;51.740;-1.314;2023-04-26T09:24:45;100505.64;;;3.25;80.20
36454;BME280;22478;51.740;-1.314;2023-04-26T09:27:13;100509.89;;;2.58;83.26
36454;BME280;22478;51.740;-1.314;2023-04-26T09:29:40;100512.51;;;2.94;77.84
36454;BME280;22478;51.740;-1.314;2023-04-26T09:32:07;100513.89;;;3.23;82.13
36454;BME280;22478;51.740;-1.314;2023-04-26T09:34:44;100511.07;;;3.86;76.71
36454;BME280;22478;51.740;-1.314;2023-04-26T09:37:11;100513.38;;;3.59;80.53
36454;BME280;22478;51.740;-1.314;2023-04-26T09:39:40;100512.69;;;4.08;74.45
36454;BME280;22478;51.740;-1.314;2023-04-26T09:42:08;100506.91;;;5.24;74.74
36454;BME280;22478;51.740;-1.314;2023-04-26T09:44:36;100506.28;;;5.08;68.26
36454;BME280;22478;51.740;-1.314;2023-04-26T09:47:05;100501.27;;;4.86;70.42
36454;BME280;22478;51.740;-1.314;2023-04-26T09:49:43;100503.88;;;2.59;78.02
36454;BME280;22478;51.740;-1.314;2023-04-26T09:52:11;100498.23;;;3.97;74.47
36454;BME280;22478;51.740;-1.314;2023-04-26T09:54:41;100487.65;;;4.64;74.92
36454;BME280;22478;51.740;-1.314;2023-04-26T09:57:09;100486.57;;;4.38;71.92
36454;BME280;22478;51.740;-1.314;2023-04-26T09:59:41;100487.26;;;4.53;69.01
36454;BME280;22478;51.740;-1.314;2023-04-26T10:02:17;100483.91;;;5.00;66.83
36454;BME280;22478;51.740;-1.314;2023-04-26T10:04:46;100481.54;;;4.02;71.85
36454;BME280;22478;51.740;-1.314;2023-04-26T10:07:16;100482.55;;;3.81;74.87
36454;BME280;22478;51.740;-1.314;2023-04-26T10:09:44;100476.94;;;7.14;61.63
36454;BME280;22478;51.740;-1.314;2023-04-26T10:12:13;100478.24;;;6.22;64.46
36454;BME280;22478;51.740;-1.314;2023-04-26T10:14:41;100466.65;;;6.70;61.29
36454;BME280;22478;51.740;-1.314;2023-04-26T10:17:09;100462.47;;;6.79;59.71
36454;BME280;22478;51.740;-1.314;2023-04-26T10:19:37;100459.30;;;7.80;56.71
36454;BME280;22478;51.740;-1.314;2023-04-26T10:22:08;100453.99;;;9.22;54.30
36454;BME280;22478;51.740;-1.314;2023-04-26T10:24:36;100451.75;;;8.86;53.22
36454;BME280;22478;51.740;-1.314;2023-04-26T10:27:03;100458.46;;;7.75;56.02
36454;BME280;22478;51.740;-1.314;2023-04-26T10:30:53;100459.05;;;7.66;55.21
36454;BME280;22478;51.740;-1.314;2023-04-26T10:33:21;100466.13;;;6.04;61.13
36454;BME280;22478;51.740;-1.314;2023-04-26T10:36:07;100464.34;;;6.26;60.13
36454;BME280;22478;51.740;-1.314;2023-04-26T10:38:36;100457.88;;;6.86;60.26
36454;BME280;22478;51.740;-1.314;2023-04-26T10:41:36;100470.59;;;5.64;62.94
36454;BME280;22478;51.740;-1.314;2023-04-26T10:45:25;100466.46;;;5.96;64.02
36454;BME280;22478;51.740;-1.314;2023-04-26T10:48:12;100458.78;;;3.32;72.32
36454;BME280;22478;51.740;-1.314;2023-04-26T10:51:07;100456.27;;;4.89;70.32
36454;BME280;22478;51.740;-1.314;2023-04-26T10:53:57;100458.12;;;4.49;68.78
36454;BME280;22478;51.740;-1.314;2023-04-26T10:56:57;100460.62;;;3.94;74.69
36454;BME280;22478;51.740;-1.314;2023-04-26T10:59:24;100453.63;;;6.43;63.97
36454;BME280;22478;51.740;-1.314;2023-04-26T11:01:51;100443.94;;;7.33;62.36
36454;BME280;22478;51.740;-1.314;2023-04-26T11:04:19;100437.12;;;7.15;59.77
36454;BME280;22478;51.740;-1.314;2023-04-26T11:06:47;100447.46;;;6.36;60.92
36454;BME280;22478;51.740;-1.314;2023-04-26T11:09:48;100448.36;;;4.36;68.17
36454;BME280;22478;51.740;-1.314;2023-04-26T11:12:15;100439.03;;;6.86;64.00
36454;BME280;22478;51.740;-1.314;2023-04-26T11:14:44;100432.76;;;8.69;56.59
36454;BME280;22478;51.740;-1.314;2023-04-26T11:17:12;100440.89;;;5.96;56.89
36454;BME280;22478;51.740;-1.314;2023-04-26T11:19:40;100444.24;;;6.36;59.44
36454;BME280;22478;51.740;-1.314;2023-04-26T11:22:08;100449.43;;;5.95;62.72
36454;BME280;22478;51.740;-1.314;2023-04-26T11:24:35;100448.40;;;5.24;61.84
36454;BME280;22478;51.740;-1.314;2023-04-26T11:27:07;100439.71;;;7.08;60.20
36454;BME280;22478;51.740;-1.314;2023-04-26T11:29:35;100442.82;;;5.57;62.35
36454;BME280;22478;51.740;-1.314;2023-04-26T11:32:03;100446.24;;;4.77;68.24
36454;BME280;22478;51.740;-1.314;2023-04-26T11:34:31;100440.55;;;6.45;60.42
36454;BME280;22478;51.740;-1.314;2023-04-26T11:37:01;100448.13;;;5.39;67.06
36454;BME280;22478;51.740;-1.314;2023-04-26T11:39:29;100449.73;;;5.55;70.91
36454;BME280;22478;51.740;-1.314;2023-04-26T11:42:03;100453.72;;;4.75;70.35
36454;BME280;22478;51.740;-1.314;2023-04-26T11:44:32;100449.32;;;5.85;67.16
36454;BME280;22478;51.740;-1.314;2023-04-26T11:47:00;100452.19;;;4.68;70.91
36454;BME280;22478;51.740;-1.314;2023-04-26T11:49:27;100450.98;;;5.55;68.47
36454;BME280;22478;51.740;-1.314;2023-04-26T11:51:54;100455.43;;;3.77;76.08
36454;BME280;22478;51.740;-1.314;2023-04-26T11:54:29;100456.38;;;4.29;69.69
36454;BME280;22478;51.740;-1.314;2023-04-26T11:56:57;100444.55;;;6.46;65.39
36454;BME280;22478;51.740;-1.314;2023-04-26T11:59:25;100447.64;;;5.80;67.80
36454;BME280;22478;51.740;-1.314;2023-04-26T12:01:52;100451.75;;;4.76;74.52
36454;BME280;22478;51.740;-1.314;2023-04-26T12:04:26;100448.14;;;5.31;69.43
36454;BME280;22478;51.740;-1.314;2023-04-26T12:06:53;100450.94;;;4.49;72.43
36454;BME280;22478;51.740;-1.314;2023-04-26T12:09:22;100448.00;;;5.46;69.72
36454;BME280;22478;51.740;-1.314;2023-04-26T12:11:55;100443.33;;;6.72;67.45
36454;BME280;22478;51.740;-1.314;2023-04-26T12:14:23;100439.91;;;6.06;67.07
36454;BME280;22478;51.740;-1.314;2023-04-26T12:16:51;100445.77;;;6.50;65.73
36454;BME280;22478;51.740;-1.314;2023-04-26T12:19:22;100446.68;;;6.23;63.95
36454;BME280;22478;51.740;-1.314;2023-04-26T12:21:50;100448.14;;;5.44;66.33
36454;BME280;22478;51.740;-1.314;2023-04-26T12:24:22;100452.46;;;3.74;72.41
36454;BME280;22478;51.740;-1.314;2023-04-26T12:26:49;100455.96;;;3.51;81.48
36454;BME280;22478;51.740;-1.314;2023-04-26T12:29:17;100449.19;;;4.45;78.90
36454;BME280;22478;51.740;-1.314;2023-04-26T12:31:45;100453.44;;;4.88;76.27
36454;BME280;22478;51.740;-1.314;2023-04-26T12:34:12;100447.00;;;4.86;77.68
36454;BME280;22478;51.740;-1.314;2023-04-26T12:36:40;100447.74;;;4.30;83.73
36454;BME280;22478;51.740;-1.314;2023-04-26T12:39:08;100442.21;;;3.98;83.54
36454;BME280;22478;51.740;-1.314;2023-04-26T12:41:35;100449.38;;;3.46;84.80
36454;BME280;22478;51.740;-1.314;2023-04-26T12:44:03;100447.29;;;5.82;74.95
36454;BME280;22478;51.740;-1.314;2023-04-26T12:46:30;100445.38;;;4.12;76.73
36454;BME280;22478;51.740;-1.314;2023-04-26T12:48:57;100446.43;;;4.98;80.01
36454;BME280;22478;51.740;-1.314;2023-04-26T12:51:25;100448.32;;;4.47;80.45
36454;BME280;22478;51.740;-1.314;2023-04-26T12:53:52;100446.97;;;4.66;78.45
36454;BME280;22478;51.740;-1.314;2023-04-26T12:56:19;100444.08;;;6.21;75.32